Time;durP1;ratioP1;P1;durP2;ratioP2;P2;SDS_P1;SDS_P2;PMS_P1;PMS_P2;Temp;Humidity;BMP_temperature;BMP_pressure;BME280_temperature;BME280_humidity;BME280_pressure;Samples;Min_cycle;Max_cycle;Signal;HPM_P1;HPM_P2
2022/02/05 04:42:40;;;;;;;;;;;;;;;;;;;;;
2022/02/05 05:20:21;;;;;;;116.75;48.28;;;-5.70;99.90;;;;;;4890746;29;20043;-96
2022/02/05 05:23:04;;;;;;;121.53;48.63;;;-5.60;99.90;;;;;;4883049;29;20070;-96
2022/02/05 05:25:43;;;;;;;120.45;48.63;;;-5.50;99.90;;;;;;4882218;29;20037;-96
2022/02/05 05:28:16;;;;;;;153.23;56.17;;;-5.40;99.90;;;;;;4882184;29;20080;-95
2022/02/05 05:31:03;;;;;;;141.70;52.20;;;-5.20;99.90;;;;;;4881970;29;20056;-96
2022/02/05 05:34:00;;;;;;;136.52;50.28;;;-5.10;99.90;;;;;;4901029;29;20024;-96
2022/02/05 05:36:50;;;;;;;175.80;62.90;;;-4.90;99.90;;;;;;4885375;29;20024;-95
2022/02/05 05:39:24;;;;;;;208.73;73.80;;;-4.90;99.90;;;;;;4886189;29;20039;-95
2022/02/05 15:58:47;;;;;;;38.50;19.00;;;-1.80;99.90;;;;;;4998380;27;2105906;-96
2022/02/05 16:01:18;;;;;;;41.05;19.55;;;-1.80;99.90;;;;;;5070568;28;20072;-96
2022/02/05 16:03:52;;;;;;;37.72;18.92;;;-1.80;99.90;;;;;;5071866;28;20033;-96
2022/02/05 16:06:28;;;;;;;40.15;19.30;;;-1.80;99.90;;;;;;5071700;28;20025;-96
2022/02/05 16:09:06;;;;;;;36.85;19.00;;;-1.70;99.90;;;;;;5070258;28;20486;-96
2022/02/05 16:11:36;;;;;;;40.97;19.30;;;-1.70;99.90;;;;;;5071647;28;20115;-96
2022/02/05 16:14:13;;;;;;;43.95;19.48;;;-1.70;99.90;;;;;;5052204;28;20033;-96
2022/02/05 16:16:45;;;;;;;40.45;19.85;;;-1.60;99.90;;;;;;5070858;28;20124;-96
2022/02/05 16:19:14;;;;;;;37.38;18.13;;;-1.60;99.90;;;;;;5071452;28;20029;-96
2022/02/05 16:21:49;;;;;;;33.90;16.70;;;-1.60;99.90;;;;;;5071196;28;20045;-95
2022/02/05 16:24:17;;;;;;;36.08;18.55;;;-1.60;99.90;;;;;;5072100;28;20020;-96
2022/02/05 16:26:50;;;;;;;37.92;17.75;;;-1.60;99.90;;;;;;5069979;28;20043;-96
2022/02/05 16:29:34;;;;;;;44.22;20.73;;;-1.50;99.90;;;;;;5070979;28;20024;-96
2022/02/05 16:32:07;;;;;;;47.30;24.08;;;-1.50;99.90;;;;;;5070871;28;20108;-95
2022/02/05 16:34:45;;;;;;;43.85;22.00;;;-1.50;99.90;;;;;;5069985;28;20029;-96
2022/02/05 16:37:18;;;;;;;67.20;35.08;;;-1.40;99.90;;;;;;5070026;28;20032;-95
2022/02/05 16:39:53;;;;;;;48.42;25.73;;;-1.40;99.90;;;;;;5069984;28;20020;-95
2022/02/05 16:42:26;;;;;;;43.75;20.83;;;-1.40;99.90;;;;;;5070024;28;20055;-95
2022/02/05 16:44:55;;;;;;;40.22;18.98;;;-1.40;99.90;;;;;;5069108;28;20024;-95
2022/02/05 16:47:28;;;;;;;45.53;22.10;;;-1.40;99.90;;;;;;5069845;28;20029;-95
2022/02/05 16:49:57;;;;;;;37.33;17.17;;;-1.30;99.90;;;;;;5063377;28;20032;-96
2022/02/05 16:52:29;;;;;;;41.70;17.83;;;-1.30;99.90;;;;;;5050008;28;20052;-93
2022/02/05 16:54:59;;;;;;;38.72;17.23;;;-1.30;99.90;;;;;;5050511;28;20117;-96
2022/02/05 16:57:37;;;;;;;36.05;17.98;;;-1.40;99.90;;;;;;5049419;28;20049;-93
2022/02/05 17:00:53;;;;;;;39.95;18.48;;;-1.30;99.90;;;;;;5049433;28;20075;-94
2022/02/05 17:03:34;;;;;;;50.35;21.02;;;-1.40;99.90;;;;;;5049428;28;20494;-91
2022/02/05 17:06:09;;;;;;;41.28;17.92;;;-1.40;99.90;;;;;;5049456;28;20045;-91
2022/02/05 17:08:40;;;;;;;42.78;18.45;;;-1.40;99.90;;;;;;5044472;28;20029;-95
2022/02/05 17:14:11;;;;;;;49.88;23.08;;;-1.40;99.90;;;;;;5037367;28;20021;-94
2022/02/05 17:16:51;;;;;;;42.15;19.67;;;-1.40;99.90;;;;;;5036349;28;20541;-95
2022/02/05 17:19:25;;;;;;;42.75;22.25;;;-1.40;99.90;;;;;;5036152;28;20029;-94
2022/02/05 17:22:06;;;;;;;40.53;18.90;;;-1.40;99.90;;;;;;5044350;28;20029;-94
2022/02/05 17:24:41;;;;;;;33.92;16.45;;;-1.40;99.90;;;;;;5035951;28;20028;-93
2022/02/05 17:27:15;;;;;;;37.28;17.65;;;-1.40;99.90;;;;;;5036026;28;20116;-95
2022/02/05 17:29:47;;;;;;;42.60;18.27;;;-1.40;99.90;;;;;;5036162;28;20033;-92
2022/02/05 17:32:16;;;;;;;37.92;17.98;;;-1.30;99.90;;;;;;5050965;28;20052;-94
2022/02/05 17:34:47;;;;;;;38.65;18.00;;;-1.30;99.90;;;;;;5040667;28;20017;-91
2022/02/05 17:37:18;;;;;;;33.70;15.88;;;-1.30;99.90;;;;;;5048812;28;20025;-95
2022/02/05 17:39:51;;;;;;;34.72;15.60;;;-1.30;99.90;;;;;;5036208;28;20056;-94
2022/02/05 17:42:17;;;;;;;32.80;16.58;;;-1.20;99.90;;;;;;5035347;28;20029;-93
2022/02/05 17:44:46;;;;;;;37.78;16.50;;;-1.20;99.90;;;;;;5053802;28;20075;-93
2022/02/05 17:47:18;;;;;;;36.72;17.20;;;-1.10;99.90;;;;;;5055013;28;20025;-94
2022/02/05 17:49:53;;;;;;;39.65;16.52;;;-1.10;99.90;;;;;;5050145;28;20032;-94
2022/02/05 17:52:22;;;;;;;34.92;17.02;;;-1.10;99.90;;;;;;5035724;28;20030;-95
2022/02/05 17:54:53;;;;;;;31.30;16.40;;;-1.10;99.90;;;;;;5049008;28;20029;-94
2022/02/05 17:57:21;;;;;;;32.08;15.63;;;-1.00;99.90;;;;;;5051048;28;20096;-95
2022/02/05 17:59:47;;;;;;;34.28;16.88;;;-1.00;99.90;;;;;;5035354;28;20037;-92
2022/02/05 18:02:32;;;;;;;34.53;16.08;;;-1.10;99.90;;;;;;5047870;28;20025;-93
2022/02/05 18:05:15;;;;;;;36.85;16.70;;;-1.10;99.90;;;;;;5039336;28;20033;-93
2022/02/05 18:10:35;;;;;;;;;;;-1.00;99.90;;;;;;5036262;28;20021;-93
2022/02/05 18:13:11;;;;;;;33.35;15.25;;;-1.00;99.90;;;;;;5035083;28;19905;-93
2022/02/05 18:16:17;;;;;;;28.17;14.30;;;-1.00;99.90;;;;;;5041086;28;20104;-95
2022/02/05 18:18:45;;;;;;;27.58;13.65;;;-0.90;99.90;;;;;;5073175;28;20094;-92
2022/02/05 18:21:12;;;;;;;29.65;14.45;;;-0.90;99.90;;;;;;5073542;28;20021;-91
2022/02/05 18:23:38;;;;;;;30.08;15.10;;;-0.90;99.90;;;;;;5074243;28;20505;-92
2022/02/05 18:26:05;;;;;;;27.80;14.63;;;-1.00;99.90;;;;;;5073999;28;20040;-91
2022/02/05 18:28:33;;;;;;;31.00;14.88;;;-0.90;99.90;;;;;;5074448;28;20031;-93
2022/02/05 18:31:03;;;;;;;35.63;16.85;;;-0.90;99.90;;;;;;5072244;28;20039;-90
2022/02/05 18:33:32;;;;;;;34.20;16.05;;;-0.90;99.90;;;;;;5074668;28;20486;-94
2022/02/05 18:36:01;;;;;;;33.80;16.50;;;-0.90;99.90;;;;;;5074099;28;20396;-93
2022/02/05 18:38:36;;;;;;;35.13;16.67;;;-0.90;99.90;;;;;;5066312;28;20495;-93
2022/02/05 18:41:10;;;;;;;39.45;18.05;;;-0.90;99.90;;;;;;5032119;28;20053;-91
2022/02/05 18:43:52;;;;;;;37.05;16.75;;;-0.90;99.90;;;;;;5033719;28;20044;-91
2022/02/05 18:46:24;;;;;;;38.10;16.40;;;-0.90;99.90;;;;;;5038682;28;20021;-91
2022/02/05 18:48:53;;;;;;;36.13;17.13;;;-0.90;99.90;;;;;;5052478;28;20079;-91
2022/02/05 18:51:26;;;;;;;39.63;17.83;;;-0.90;99.90;;;;;;5034187;28;20061;-92
2022/02/05 18:54:01;;;;;;;36.63;17.10;;;-0.90;99.90;;;;;;5050469;28;20029;-93
2022/02/05 18:56:37;;;;;;;38.90;17.67;;;-0.90;99.90;;;;;;5054172;28;20032;-92
2022/02/05 18:59:12;;;;;;;49.95;19.95;;;-0.90;99.90;;;;;;5057470;28;20039;-94
2022/02/05 19:01:47;;;;;;;42.28;19.40;;;-1.00;99.90;;;;;;5044078;28;20028;-93
2022/02/05 19:18:43;;;;;;;38.97;18.33;;;-0.90;99.90;;;;;;5075000;28;20033;-93
2022/02/05 19:21:17;;;;;;;38.08;18.08;;;-0.90;99.90;;;;;;5056384;28;20093;-93
2022/02/05 19:23:47;;;;;;;38.50;18.02;;;-0.90;99.90;;;;;;5057139;28;20111;-93
2022/02/05 19:26:27;;;;;;;42.70;19.70;;;-0.80;99.90;;;;;;5056697;28;20056;-93
2022/02/05 19:28:55;;;;;;;38.55;19.63;;;-0.90;99.90;;;;;;5057236;28;20067;-91
2022/02/05 19:31:29;;;;;;;42.63;19.33;;;-0.90;99.90;;;;;;5056041;28;20032;-92
2022/02/05 19:33:58;;;;;;;44.08;21.05;;;-0.80;99.90;;;;;;5056577;28;20029;-94
2022/02/05 19:36:33;;;;;;;43.75;19.05;;;-0.80;99.90;;;;;;5055648;28;20470;-93
2022/02/05 19:39:17;;;;;;;52.58;21.77;;;-0.80;99.90;;;;;;5058161;28;20028;-93
2022/02/05 19:41:50;;;;;;;41.85;20.67;;;-0.70;99.90;;;;;;5066757;28;20028;-94
2022/02/05 19:44:24;;;;;;;52.55;21.45;;;-0.80;99.90;;;;;;5076036;28;20055;-93
2022/02/05 19:47:02;;;;;;;48.65;21.77;;;-0.80;99.90;;;;;;5076398;28;20035;-93
2022/02/05 19:49:35;;;;;;;55.00;24.70;;;-0.70;99.90;;;;;;5077435;28;20454;-94
2022/02/05 19:52:21;;;;;;;50.58;22.00;;;-0.70;99.90;;;;;;5076432;28;20473;-94
2022/02/05 19:54:57;;;;;;;48.08;22.10;;;-0.70;99.90;;;;;;5052431;28;20045;-93
2022/02/05 19:57:23;;;;;;;47.22;22.95;;;-0.70;99.90;;;;;;5033163;28;20137;-90
2022/02/05 19:59:52;;;;;;;49.30;23.38;;;-0.70;99.90;;;;;;5047654;28;20480;-93
2022/02/05 20:02:20;;;;;;;53.53;25.30;;;-0.70;99.90;;;;;;5053513;28;20021;-93
2022/02/05 20:05:16;;;;;;;61.92;26.80;;;-0.60;99.90;;;;;;5052511;28;20044;-93
2022/02/05 20:10:34;;;;;;;60.25;26.95;;;-0.70;99.90;;;;;;5053716;28;20028;-94
2022/02/05 20:13:06;;;;;;;52.17;23.85;;;-0.60;99.90;;;;;;5042584;28;20025;-93
2022/02/05 20:15:32;;;;;;;57.60;24.55;;;-0.70;99.90;;;;;;5032550;28;20120;-93
2022/02/05 20:17:58;;;;;;;54.28;24.30;;;-0.60;99.90;;;;;;5033756;28;20079;-94
2022/02/05 20:20:37;;;;;;;60.50;25.70;;;-0.60;99.90;;;;;;5033642;28;20364;-93
2022/02/05 20:23:11;;;;;;;60.00;24.98;;;-0.60;99.90;;;;;;5032855;28;20017;-93
2022/02/05 20:25:40;;;;;;;56.03;24.38;;;-0.70;99.90;;;;;;5033579;28;20416;-93
2022/02/05 20:28:09;;;;;;;55.33;24.73;;;-0.70;99.90;;;;;;5032136;28;20120;-92
2022/02/05 20:30:55;;;;;;;45.95;21.92;;;-0.60;99.90;;;;;;5033166;28;20034;-94
2022/02/05 20:33:29;;;;;;;52.63;24.02;;;-0.60;99.90;;;;;;5032714;28;20463;-93
2022/02/05 20:36:07;;;;;;;59.15;24.75;;;-0.60;99.90;;;;;;5033358;28;20030;-94
2022/02/05 20:38:48;;;;;;;52.88;24.98;;;-0.70;99.90;;;;;;5033292;28;20533;-93
2022/02/05 20:41:29;;;;;;;54.60;24.42;;;-0.70;99.90;;;;;;5032599;28;20033;-93
2022/02/05 20:43:55;;;;;;;55.10;24.65;;;-0.70;99.90;;;;;;5034187;28;20045;-94
2022/02/05 20:46:31;;;;;;;55.13;24.75;;;-0.70;99.90;;;;;;5037250;28;20060;-93
2022/02/05 20:49:02;;;;;;;53.47;24.92;;;-0.60;99.90;;;;;;5037085;28;20367;-94
2022/02/05 20:51:34;;;;;;;52.80;22.58;;;-0.60;99.90;;;;;;5036553;28;20021;-93
2022/02/05 20:57:09;;;;;;;50.58;23.73;;;-0.60;99.90;;;;;;5040344;28;20091;-93
2022/02/05 20:59:40;;;;;;;54.03;24.65;;;-0.50;99.90;;;;;;5040284;28;20102;-93
2022/02/05 21:02:19;;;;;;;59.58;25.70;;;-0.50;99.90;;;;;;5016093;28;20034;-93
2022/02/05 21:05:22;;;;;;;52.40;23.57;;;-0.50;99.90;;;;;;4999223;28;20117;-94
2022/02/05 21:08:00;;;;;;;56.28;24.88;;;-0.50;99.90;;;;;;5002977;28;20037;-93
2022/02/05 21:10:31;;;;;;;57.58;24.92;;;-0.60;99.90;;;;;;5018869;28;20117;-94
2022/02/05 21:13:10;;;;;;;66.40;26.80;;;-0.60;99.90;;;;;;5018568;28;20037;-93
2022/02/05 21:15:38;;;;;;;55.80;24.55;;;-0.60;99.90;;;;;;5018711;28;20037;-93
2022/02/05 21:18:10;;;;;;;58.80;26.23;;;-0.60;99.90;;;;;;5017706;28;20495;-92
2022/02/05 21:20:44;;;;;;;57.25;26.65;;;-0.60;99.90;;;;;;5017756;28;20073;-93
2022/02/05 21:23:13;;;;;;;61.15;29.83;;;-0.60;99.90;;;;;;5018705;28;20055;-93
2022/02/05 21:25:53;;;;;;;52.85;26.23;;;-0.60;99.90;;;;;;5018917;28;20033;-92
2022/02/05 21:28:29;;;;;;;51.67;25.73;;;-0.50;99.90;;;;;;5018362;28;20158;-93
2022/02/05 21:31:22;;;;;;;60.15;26.98;;;-0.50;99.90;;;;;;5018936;28;20136;-92
2022/02/05 21:36:40;;;;;;;53.97;26.17;;;-0.50;99.90;;;;;;5077027;28;20120;-93
2022/02/05 21:39:11;;;;;;;55.53;25.90;;;-0.50;99.90;;;;;;5059398;28;20390;-93
2022/02/05 21:41:55;;;;;;;55.13;25.63;;;-0.50;99.90;;;;;;5057872;28;20025;-93
2022/02/05 21:44:26;;;;;;;54.42;25.80;;;-0.50;99.90;;;;;;5059580;28;20044;-93
2022/02/05 21:46:56;;;;;;;55.05;25.45;;;-0.50;99.90;;;;;;5051920;28;20021;-93
2022/02/05 21:49:25;;;;;;;55.78;25.98;;;-0.50;99.90;;;;;;5038993;28;20033;-93
2022/02/05 21:51:59;;;;;;;52.22;26.00;;;-0.40;99.90;;;;;;5038411;28;20490;-92
2022/02/05 21:54:35;;;;;;;55.88;26.63;;;-0.40;99.90;;;;;;5038049;28;20043;-92
2022/02/05 21:57:17;;;;;;;53.00;25.80;;;-0.40;99.90;;;;;;5038888;28;20373;-93
2022/02/05 21:59:52;;;;;;;56.75;25.70;;;-0.30;99.90;;;;;;5039190;28;20107;-91
2022/02/05 22:02:25;;;;;;;53.85;25.25;;;-0.30;99.90;;;;;;5053646;28;20542;-92
2022/02/05 22:04:56;;;;;;;46.80;22.98;;;-0.20;99.90;;;;;;5059210;28;20029;-92
2022/02/05 22:07:29;;;;;;;42.35;22.50;;;-0.10;99.90;;;;;;5053680;28;20028;-93
2022/02/05 22:10:03;;;;;;;41.15;21.40;;;-0.10;99.90;;;;;;5057714;28;20059;-91
2022/02/05 22:12:29;;;;;;;44.03;21.08;;;0.00;99.90;;;;;;5058177;28;20020;-90
2022/02/05 22:14:55;;;;;;;42.63;21.17;;;0.00;99.90;;;;;;5057989;28;20028;-92
2022/02/05 22:17:59;;;;;;;39.95;20.58;;;0.10;99.90;;;;;;5057918;28;20024;-92
2022/02/05 22:20:28;;;;;;;37.80;20.48;;;0.10;99.90;;;;;;5058137;28;20382;-92
2022/02/05 22:22:54;;;;;;;39.22;20.55;;;0.20;99.90;;;;;;5058584;28;20055;-91
2022/02/05 22:25:30;;;;;;;42.55;20.35;;;0.20;99.90;;;;;;5057225;28;20402;-90
2022/02/05 22:28:12;;;;;;;39.17;19.42;;;0.20;99.90;;;;;;5039769;28;20029;-91
2022/02/05 22:30:40;;;;;;;37.70;18.58;;;0.20;99.90;;;;;;5038023;28;20033;-91
2022/02/05 22:33:11;;;;;;;35.72;18.60;;;0.30;99.90;;;;;;5038015;28;20082;-91
2022/02/05 22:35:43;;;;;;;36.22;18.60;;;0.30;99.90;;;;;;5037373;28;20032;-91
2022/02/05 22:38:09;;;;;;;38.35;18.35;;;0.30;99.90;;;;;;5037621;28;20028;-91
2022/02/05 22:40:44;;;;;;;38.53;19.38;;;0.30;99.90;;;;;;5039130;28;20025;-90
2022/02/05 22:43:13;;;;;;;38.28;18.70;;;0.30;99.90;;;;;;5037594;28;20021;-90
2022/02/05 22:45:41;;;;;;;37.50;18.45;;;0.30;99.90;;;;;;5038624;28;20106;-91
2022/02/05 22:48:13;;;;;;;35.13;17.58;;;0.30;99.90;;;;;;5058114;28;20039;-91
2022/02/05 22:50:44;;;;;;;38.65;17.30;;;0.30;99.90;;;;;;5057774;28;20029;-90
2022/02/05 22:53:10;;;;;;;36.10;16.77;;;0.30;99.90;;;;;;5057244;28;20031;-90
2022/02/05 22:55:44;;;;;;;31.95;16.60;;;0.40;99.90;;;;;;5057430;28;20028;-90
2022/02/05 22:58:14;;;;;;;35.70;17.17;;;0.40;99.90;;;;;;5053677;28;20403;-89
2022/02/05 23:00:49;;;;;;;29.60;15.60;;;0.30;99.90;;;;;;5050726;28;20025;-90
2022/02/05 23:03:18;;;;;;;32.00;15.23;;;0.40;99.90;;;;;;5033487;28;20053;-89
2022/02/05 23:05:49;;;;;;;27.52;14.63;;;0.40;99.90;;;;;;5033501;28;20036;-89
2022/02/05 23:08:25;;;;;;;26.33;13.90;;;0.40;99.90;;;;;;5046858;28;20112;-90
2022/02/05 23:11:10;;;;;;;28.38;13.95;;;0.40;99.90;;;;;;5053856;28;20475;-89
2022/02/05 23:13:50;;;;;;;25.10;13.32;;;0.40;99.90;;;;;;5054164;28;20471;-89
2022/02/05 23:43:41;;;;;;;19.38;10.15;;;0.40;99.90;;;;;;5035007;28;20124;-89
2022/02/05 23:46:07;;;;;;;17.48;8.85;;;0.40;99.90;;;;;;5034073;28;20582;-90
2022/02/05 23:48:38;;;;;;;16.45;8.70;;;0.40;99.90;;;;;;5033189;28;20025;-89
2022/02/05 23:51:04;;;;;;;16.98;9.40;;;0.30;99.90;;;;;;5033147;28;20060;-89
2022/02/05 23:53:33;;;;;;;16.33;8.77;;;0.30;99.90;;;;;;5034247;28;20069;-89
2022/02/05 23:55:59;;;;;;;19.23;8.95;;;0.20;99.90;;;;;;5033362;28;20044;-89
2022/02/05 23:58:28;;;;;;;17.15;8.57;;;0.30;99.90;;;;;;5032843;28;20132;-88
